Time;durP1;ratioP1;P1;durP2;ratioP2;P2;SDS_P1;SDS_P2;PMS_P1;PMS_P2;Temp;Humidity;BMP_temperature;BMP_pressure;BME280_temperature;BME280_humidity;BME280_pressure;Samples;Min_cycle;Max_cycle;Signal;HPM_P1;HPM_P2
2022/11/24 00:01:03;;;;;;;5.90;3.50;;;16.30;56.80;;;;;;5072922;28;20446;-79
2022/11/24 00:03:32;;;;;;;4.53;2.80;;;16.30;56.80;;;;;;5081645;28;20459;-79
2022/11/24 00:06:03;;;;;;;3.50;3.17;;;16.30;56.80;;;;;;5073373;28;20474;-79
2022/11/24 00:08:31;;;;;;;4.63;2.77;;;16.20;56.80;;;;;;5075080;28;20468;-81
2022/11/24 00:11:03;;;;;;;3.97;3.10;;;16.30;56.90;;;;;;5075284;28;20476;-81
2022/11/24 00:13:32;;;;;;;4.17;3.10;;;16.20;56.80;;;;;;5071827;28;20995;-81
2022/11/24 00:16:09;;;;;;;3.40;3.10;;;16.20;56.80;;;;;;5071468;28;20478;-80
2022/11/24 00:18:38;;;;;;;5.53;2.87;;;16.20;56.90;;;;;;5071970;28;20455;-81
2022/11/24 00:21:06;;;;;;;6.23;3.20;;;16.20;57.00;;;;;;5070704;28;20450;-80
2022/11/24 00:23:35;;;;;;;4.33;2.80;;;16.10;57.00;;;;;;5076133;28;20465;-81
2022/11/24 00:26:07;;;;;;;3.50;2.70;;;16.20;56.90;;;;;;5069471;28;20473;-80
2022/11/24 00:28:35;;;;;;;3.17;2.87;;;16.20;57.00;;;;;;5079808;28;20463;-81
2022/11/24 00:31:03;;;;;;;5.00;3.27;;;16.10;56.90;;;;;;5072436;28;20456;-81
2022/11/24 00:33:33;;;;;;;3.73;2.90;;;16.10;56.90;;;;;;5075366;28;20454;-81
2022/11/24 00:36:01;;;;;;;3.53;2.83;;;16.20;57.00;;;;;;5075691;28;20472;-81
2022/11/24 00:38:30;;;;;;;3.90;3.03;;;16.10;57.10;;;;;;5070164;28;20460;-81
2022/11/24 00:40:58;;;;;;;6.47;3.00;;;16.10;57.00;;;;;;5070928;28;20449;-81
2022/11/24 00:43:26;;;;;;;16.50;10.30;;;16.10;56.90;;;;;;5077426;28;20468;-81
2022/11/24 00:45:54;;;;;;;9.97;6.90;;;16.10;57.00;;;;;;5066411;28;20469;-81
2022/11/24 00:48:22;;;;;;;13.60;7.87;;;16.00;56.90;;;;;;5074647;28;20505;-81
2022/11/24 00:50:59;;;;;;;11.20;7.33;;;16.00;57.10;;;;;;5073113;28;20442;-80
2022/11/24 00:53:27;;;;;;;10.80;6.60;;;16.00;56.90;;;;;;5076379;28;20468;-80
2022/11/24 00:55:55;;;;;;;9.03;6.03;;;16.10;57.00;;;;;;5083453;28;20442;-80
2022/11/24 00:58:23;;;;;;;8.07;6.37;;;16.00;56.90;;;;;;5078077;28;20504;-80
2022/11/24 01:00:51;;;;;;;11.20;6.50;;;16.00;57.00;;;;;;5085111;28;20442;-80
2022/11/24 01:03:20;;;;;;;9.77;7.00;;;16.00;57.10;;;;;;5075711;28;20473;-79
2022/11/24 01:05:48;;;;;;;10.83;6.33;;;16.00;56.90;;;;;;5083146;28;20449;-80
2022/11/24 01:08:18;;;;;;;8.83;5.60;;;16.10;57.00;;;;;;5079872;28;20442;-81
2022/11/24 01:10:46;;;;;;;10.50;6.20;;;16.10;57.00;;;;;;5083678;28;20449;-81
2022/11/24 01:13:14;;;;;;;8.70;6.23;;;16.10;57.10;;;;;;5080369;28;20452;-80
2022/11/24 01:15:42;;;;;;;12.13;6.87;;;16.10;57.00;;;;;;5068850;28;20477;-80
2022/11/24 01:18:10;;;;;;;8.77;5.83;;;16.10;56.90;;;;;;5066307;28;20450;-80
2022/11/24 01:20:38;;;;;;;10.60;6.50;;;16.10;57.00;;;;;;5080599;28;20460;-82
2022/11/24 01:23:06;;;;;;;6.70;5.60;;;16.10;56.90;;;;;;5077170;28;20438;-81
2022/11/24 01:25:39;;;;;;;7.77;5.47;;;16.10;57.00;;;;;;5077719;28;20457;-81
2022/11/24 01:28:07;;;;;;;10.20;5.83;;;16.10;57.00;;;;;;5078171;28;20422;-82
2022/11/24 01:30:35;;;;;;;7.10;5.40;;;16.10;57.10;;;;;;5077117;28;20465;-81
2022/11/24 01:33:03;;;;;;;9.50;6.20;;;16.20;57.00;;;;;;5077894;28;20434;-81
2022/11/24 01:35:32;;;;;;;9.70;5.43;;;16.20;56.90;;;;;;5080870;28;20473;-81
2022/11/24 01:37:59;;;;;;;8.30;5.40;;;16.20;57.10;;;;;;5077515;28;20452;-81
2022/11/24 01:40:28;;;;;;;8.70;6.00;;;16.10;57.00;;;;;;5074615;28;20449;-80
2022/11/24 01:42:57;;;;;;;7.20;5.20;;;16.10;57.00;;;;;;5075608;28;20455;-80
2022/11/24 01:45:39;;;;;;;6.30;4.70;;;16.10;57.00;;;;;;5073715;28;20535;-80
2022/11/24 01:48:11;;;;;;;7.70;5.70;;;16.10;57.00;;;;;;5069084;28;20526;-80
2022/11/24 01:50:40;;;;;;;7.03;5.10;;;16.10;57.10;;;;;;5068917;28;20473;-81
2022/11/24 01:53:08;;;;;;;7.40;5.47;;;16.10;57.10;;;;;;5089640;28;20440;-81
2022/11/24 01:55:37;;;;;;;8.93;4.50;;;16.00;57.20;;;;;;5064894;28;20481;-80
2022/11/24 01:58:08;;;;;;;7.27;5.30;;;16.10;57.20;;;;;;5072740;28;20453;-80
2022/11/24 02:00:37;;;;;;;8.50;4.93;;;16.00;57.20;;;;;;5058586;28;20465;-80
2022/11/24 02:03:05;;;;;;;5.60;4.87;;;16.00;57.10;;;;;;5060699;28;20454;-80
2022/11/24 02:05:35;;;;;;;9.03;4.73;;;16.00;57.10;;;;;;5058716;28;20508;-79
2022/11/24 02:08:04;;;;;;;7.00;4.70;;;16.00;57.10;;;;;;5056955;28;20450;-80
2022/11/24 02:10:32;;;;;;;6.63;5.20;;;16.00;57.20;;;;;;5061995;28;20474;-80
2022/11/24 02:13:00;;;;;;;6.43;4.60;;;16.00;57.10;;;;;;5062689;28;20457;-81
2022/11/24 02:15:30;;;;;;;7.53;4.87;;;16.00;57.20;;;;;;5060608;28;20477;-81
2022/11/24 02:17:59;;;;;;;7.77;5.00;;;16.00;57.20;;;;;;5059125;28;20453;-81
2022/11/24 02:20:27;;;;;;;8.47;5.00;;;16.00;57.60;;;;;;5058419;28;20445;-81
2022/11/24 02:22:59;;;;;;;8.40;4.60;;;16.00;57.00;;;;;;5055581;28;20463;-81
2022/11/24 02:25:31;;;;;;;8.37;4.80;;;16.00;57.30;;;;;;5056247;28;20470;-81
2022/11/24 02:28:00;;;;;;;5.73;4.23;;;15.90;57.40;;;;;;5057835;28;20449;-81
2022/11/24 02:30:29;;;;;;;9.33;5.00;;;15.90;57.20;;;;;;5065103;28;20472;-80
2022/11/24 02:32:57;;;;;;;4.97;4.40;;;15.90;57.20;;;;;;5054976;28;20460;-81
2022/11/24 02:35:26;;;;;;;6.57;4.47;;;15.90;57.20;;;;;;5065276;28;20473;-80
2022/11/24 02:37:54;;;;;;;6.87;4.40;;;15.90;57.30;;;;;;5054352;28;20450;-81
2022/11/24 02:40:25;;;;;;;5.80;4.50;;;15.90;57.40;;;;;;5061092;28;20449;-79
2022/11/24 02:42:54;;;;;;;5.43;4.20;;;15.90;57.40;;;;;;5058873;28;20454;-80
2022/11/24 02:45:23;;;;;;;5.87;4.47;;;15.90;57.30;;;;;;5062014;28;20460;-81
2022/11/24 02:47:51;;;;;;;5.57;4.27;;;15.90;57.30;;;;;;5071477;28;20447;-81
2022/11/24 02:50:19;;;;;;;6.07;4.13;;;15.90;57.20;;;;;;5067002;28;20471;-80
2022/11/24 02:52:48;;;;;;;5.83;4.20;;;15.90;57.40;;;;;;5065015;28;20457;-81
2022/11/24 02:55:16;;;;;;;5.37;4.60;;;15.80;57.40;;;;;;5072631;28;20436;-81
2022/11/24 02:57:44;;;;;;;5.50;4.43;;;15.90;57.40;;;;;;5086696;28;20452;-81
2022/11/24 03:00:13;;;;;;;9.83;4.53;;;15.80;57.30;;;;;;5084927;28;20441;-81
2022/11/24 03:02:43;;;;;;;5.03;4.40;;;15.80;57.50;;;;;;5068685;28;20454;-80
2022/11/24 03:05:11;;;;;;;4.80;3.60;;;15.80;57.40;;;;;;5053715;28;20454;-81
2022/11/24 03:07:39;;;;;;;4.23;3.43;;;15.80;57.40;;;;;;5055815;28;20454;-80
2022/11/24 03:10:08;;;;;;;4.50;4.00;;;15.80;57.50;;;;;;5059219;28;20470;-81
2022/11/24 03:12:36;;;;;;;5.00;3.77;;;15.80;57.50;;;;;;5058684;28;20461;-81
2022/11/24 03:15:05;;;;;;;4.80;3.70;;;15.70;57.50;;;;;;5062729;28;20450;-81
2022/11/24 03:17:34;;;;;;;4.70;4.10;;;15.70;57.50;;;;;;5059009;28;20464;-81
2022/11/24 03:20:04;;;;;;;5.80;3.93;;;15.70;57.40;;;;;;5060219;28;20449;-82
2022/11/24 03:22:32;;;;;;;8.90;3.70;;;15.70;57.40;;;;;;5055537;28;20569;-80
2022/11/24 03:25:00;;;;;;;6.33;4.20;;;15.80;57.50;;;;;;5059817;28;20463;-81
2022/11/24 03:27:28;;;;;;;8.50;3.70;;;15.70;57.40;;;;;;5053619;28;20475;-80
2022/11/24 03:29:56;;;;;;;6.90;4.00;;;15.70;57.40;;;;;;5056289;28;20987;-80
2022/11/24 03:32:24;;;;;;;4.93;4.17;;;15.70;57.60;;;;;;5067368;28;20457;-81
2022/11/24 03:34:52;;;;;;;5.63;3.70;;;15.70;57.50;;;;;;5061728;28;20454;-81
2022/11/24 03:37:22;;;;;;;4.43;3.70;;;15.70;57.50;;;;;;5059718;28;20475;-81
2022/11/24 03:39:51;;;;;;;4.23;3.43;;;15.70;57.50;;;;;;5054173;28;20454;-81
2022/11/24 03:42:19;;;;;;;5.40;3.77;;;15.70;57.40;;;;;;5060898;28;20459;-79
2022/11/24 03:44:47;;;;;;;6.20;3.83;;;15.70;57.40;;;;;;5057753;28;20461;-80
2022/11/24 03:47:15;;;;;;;4.60;3.80;;;15.70;57.60;;;;;;5062069;28;20495;-80
2022/11/24 03:49:43;;;;;;;4.30;3.53;;;15.70;57.60;;;;;;5066255;28;20521;-80
2022/11/24 03:52:11;;;;;;;4.40;3.77;;;15.70;57.60;;;;;;5059415;28;20453;-80
2022/11/24 03:54:41;;;;;;;3.93;3.50;;;15.70;57.70;;;;;;5057336;28;20447;-80
2022/11/24 03:57:09;;;;;;;4.47;3.53;;;15.70;57.50;;;;;;5055851;28;20494;-80
2022/11/24 03:59:38;;;;;;;5.17;3.63;;;15.60;57.60;;;;;;5065874;28;20457;-80
2022/11/24 04:02:06;;;;;;;5.97;3.57;;;15.70;57.70;;;;;;5071017;28;20447;-80
2022/11/24 04:04:34;;;;;;;8.40;3.40;;;15.70;57.60;;;;;;5059892;28;20475;-80
2022/11/24 04:07:03;;;;;;;3.60;3.00;;;15.60;57.60;;;;;;5060450;28;20474;-81
2022/11/24 04:09:31;;;;;;;5.47;3.20;;;15.70;57.70;;;;;;5056398;28;20454;-79
2022/11/24 04:14:46;;;;;;;4.93;3.20;;;15.60;57.60;;;;;;5057026;28;20458;-81
2022/11/24 04:17:14;;;;;;;4.03;3.10;;;15.60;57.60;;;;;;5058375;28;20485;-81
2022/11/24 04:19:42;;;;;;;4.23;3.70;;;15.60;57.60;;;;;;5056751;28;20465;-80
2022/11/24 04:22:10;;;;;;;5.20;3.53;;;15.60;57.70;;;;;;5066551;28;20451;-80
2022/11/24 04:24:38;;;;;;;3.90;3.17;;;15.60;57.50;;;;;;5057862;28;20449;-80
2022/11/24 04:27:08;;;;;;;3.87;3.33;;;15.60;57.60;;;;;;5062065;28;20469;-80
2022/11/24 04:29:36;;;;;;;4.00;3.60;;;15.60;57.70;;;;;;5056032;28;20459;-80
2022/11/24 04:32:04;;;;;;;5.87;3.03;;;15.60;57.60;;;;;;5060374;28;21054;-80
2022/11/24 04:34:33;;;;;;;4.70;2.93;;;15.60;57.60;;;;;;5056715;28;20459;-80
2022/11/24 04:37:01;;;;;;;4.00;3.10;;;15.70;57.70;;;;;;5080094;28;20529;-82
2022/11/24 04:39:30;;;;;;;3.87;3.10;;;15.70;57.70;;;;;;5093234;28;20426;-80
2022/11/24 04:41:58;;;;;;;5.10;3.57;;;15.70;57.50;;;;;;5091398;28;20518;-81
2022/11/24 04:44:31;;;;;;;3.17;2.83;;;15.70;57.70;;;;;;5086162;28;20521;-82
2022/11/24 04:47:00;;;;;;;5.20;3.27;;;15.70;57.70;;;;;;5082219;28;20485;-81
2022/11/24 04:49:29;;;;;;;3.90;3.07;;;15.70;57.60;;;;;;5085757;28;20434;-82
2022/11/24 04:51:57;;;;;;;3.63;2.87;;;15.70;57.40;;;;;;5077202;28;20482;-80
2022/11/24 04:54:25;;;;;;;3.30;3.03;;;15.70;57.60;;;;;;5083855;28;20470;-82
2022/11/24 04:56:53;;;;;;;3.97;3.30;;;15.60;57.60;;;;;;5086566;28;20470;-80
2022/11/24 04:59:21;;;;;;;3.73;3.00;;;15.60;57.60;;;;;;5091299;28;20457;-81
2022/11/24 05:01:51;;;;;;;3.20;2.93;;;15.60;57.60;;;;;;5086778;28;20553;-79
2022/11/24 05:04:20;;;;;;;5.27;3.00;;;15.70;57.70;;;;;;5078231;28;20504;-81
2022/11/24 05:06:48;;;;;;;3.77;2.90;;;15.60;57.70;;;;;;5085297;28;20516;-81
2022/11/24 05:09:17;;;;;;;5.50;2.90;;;15.70;57.60;;;;;;5073993;28;20458;-80
2022/11/24 05:11:45;;;;;;;5.83;3.07;;;15.70;57.60;;;;;;5065792;28;20480;-81
2022/11/24 05:14:13;;;;;;;5.77;3.50;;;15.60;57.50;;;;;;5064981;28;20454;-81
2022/11/24 05:16:41;;;;;;;3.80;2.93;;;15.60;57.60;;;;;;5063954;28;20478;-81
2022/11/24 05:19:10;;;;;;;6.60;3.83;;;15.70;57.80;;;;;;5069416;28;20503;-81
2022/11/24 05:21:38;;;;;;;5.10;3.13;;;15.70;58.10;;;;;;5071711;28;20445;-82
2022/11/24 05:24:07;;;;;;;4.60;3.40;;;15.70;57.50;;;;;;5069198;28;20461;-81
2022/11/24 05:26:35;;;;;;;2.93;2.60;;;15.70;57.60;;;;;;5063176;28;20874;-81
2022/11/24 05:29:03;;;;;;;5.37;3.00;;;15.70;57.70;;;;;;5059383;28;20462;-81
2022/11/24 05:31:31;;;;;;;6.00;3.07;;;15.70;57.50;;;;;;5063472;28;20517;-80
2022/11/24 05:33:59;;;;;;;3.47;2.90;;;15.70;57.60;;;;;;5060769;28;20459;-80
2022/11/24 05:39:15;;;;;;;5.13;3.50;;;15.70;57.50;;;;;;5066280;28;20447;-81
2022/11/24 05:41:43;;;;;;;4.60;2.97;;;15.70;57.50;;;;;;5060023;28;20497;-81
2022/11/24 05:44:11;;;;;;;3.63;3.00;;;15.70;57.50;;;;;;5063505;28;20445;-82
2022/11/24 05:46:40;;;;;;;2.93;2.60;;;15.80;57.60;;;;;;5066263;28;20470;-83
2022/11/24 05:49:08;;;;;;;3.90;2.73;;;15.80;57.60;;;;;;5065189;28;20515;-82
2022/11/24 05:51:38;;;;;;;5.20;2.87;;;15.70;57.60;;;;;;5061468;28;20470;-82
2022/11/24 05:54:06;;;;;;;3.30;2.87;;;15.70;57.60;;;;;;5060368;28;20461;-82
2022/11/24 05:56:34;;;;;;;3.93;2.37;;;15.70;57.50;;;;;;5070638;28;20902;-81
2022/11/24 05:59:02;;;;;;;4.70;3.30;;;15.70;57.40;;;;;;5064973;28;20448;-82
2022/11/24 06:01:36;;;;;;;3.83;2.43;;;15.70;57.50;;;;;;5071533;28;20445;-80
2022/11/24 06:04:05;;;;;;;4.13;2.93;;;15.70;57.60;;;;;;5062968;28;20455;-82
2022/11/24 06:06:33;;;;;;;6.33;3.27;;;15.70;57.50;;;;;;5068275;28;20474;-82
2022/11/24 06:09:03;;;;;;;4.00;2.93;;;15.70;57.50;;;;;;5064152;28;20451;-83
2022/11/24 06:11:31;;;;;;;7.17;3.17;;;15.70;57.40;;;;;;5061269;28;20473;-83
2022/11/24 06:13:59;;;;;;;7.03;2.77;;;15.70;57.50;;;;;;5064240;28;21027;-82
2022/11/24 06:16:27;;;;;;;3.13;2.70;;;15.70;57.50;;;;;;5059604;28;20481;-80
2022/11/24 06:18:56;;;;;;;3.73;2.83;;;15.70;57.50;;;;;;5060978;28;20537;-83
2022/11/24 06:21:24;;;;;;;3.73;3.03;;;15.70;57.50;;;;;;5065272;28;20450;-82
2022/11/24 06:23:52;;;;;;;4.00;2.50;;;15.70;57.50;;;;;;5065780;28;20486;-82
2022/11/24 06:26:22;;;;;;;3.20;2.60;;;15.60;57.60;;;;;;5069163;28;20488;-82
2022/11/24 06:28:50;;;;;;;5.43;2.73;;;15.60;57.40;;;;;;5066929;28;20532;-84
2022/11/24 06:31:18;;;;;;;5.20;3.20;;;15.60;57.40;;;;;;5061751;28;20465;-83
2022/11/24 06:33:47;;;;;;;7.77;3.10;;;15.60;57.50;;;;;;5062390;28;20481;-83
2022/11/24 06:36:15;;;;;;;3.57;2.67;;;15.60;57.50;;;;;;5061750;28;20478;-83
2022/11/24 06:38:43;;;;;;;3.37;2.90;;;15.60;57.40;;;;;;5070606;28;20454;-84
2022/11/24 06:41:13;;;;;;;3.90;2.67;;;15.60;57.70;;;;;;5069603;28;20458;-84
2022/11/24 06:43:42;;;;;;;6.50;3.20;;;15.60;57.60;;;;;;5064909;28;20971;-83
2022/11/24 06:46:11;;;;;;;5.97;3.13;;;15.60;57.50;;;;;;5060741;28;20528;-84
2022/11/24 06:48:39;;;;;;;4.83;2.67;;;15.60;58.20;;;;;;5069948;28;20454;-83
2022/11/24 06:51:08;;;;;;;3.50;2.83;;;15.60;57.60;;;;;;5060560;28;20449;-83
2022/11/24 06:53:37;;;;;;;3.90;2.97;;;15.60;57.50;;;;;;5063446;28;20446;-83
2022/11/24 06:56:05;;;;;;;4.60;2.87;;;15.60;57.60;;;;;;5061867;28;20462;-82
2022/11/24 06:58:42;;;;;;;4.80;2.80;;;15.60;57.50;;;;;;5070672;28;20449;-82
2022/11/24 07:01:14;;;;;;;5.70;2.90;;;15.60;57.60;;;;;;5063151;28;20454;-83
2022/11/24 07:03:42;;;;;;;4.67;2.60;;;15.60;57.70;;;;;;5063960;28;20451;-82
2022/11/24 07:06:10;;;;;;;3.10;2.60;;;15.60;57.50;;;;;;5063854;28;20477;-83
2022/11/24 07:08:38;;;;;;;6.63;3.10;;;15.60;57.50;;;;;;5060377;28;20463;-82
2022/11/24 07:11:07;;;;;;;8.40;2.77;;;15.60;57.50;;;;;;5066378;28;20541;-82
2022/11/24 07:13:35;;;;;;;5.03;2.63;;;15.60;57.60;;;;;;5084031;28;20469;-81
2022/11/24 07:16:12;;;;;;;3.80;2.53;;;15.60;58.10;;;;;;5064244;28;20474;-81
2022/11/24 07:18:41;;;;;;;7.30;2.53;;;15.60;57.50;;;;;;5064898;28;20975;-80
2022/11/24 07:21:09;;;;;;;5.53;2.70;;;15.60;57.50;;;;;;5064806;28;20446;-81
2022/11/24 07:23:37;;;;;;;5.50;2.50;;;15.60;57.50;;;;;;5063167;28;20469;-82
2022/11/24 07:26:05;;;;;;;2.90;2.53;;;15.60;57.60;;;;;;5063827;28;20472;-81
2022/11/24 07:28:35;;;;;;;3.30;2.63;;;15.60;57.60;;;;;;5072152;28;20472;-81
2022/11/24 07:31:06;;;;;;;3.43;2.70;;;15.60;57.60;;;;;;5068256;28;20446;-80
2022/11/24 07:33:35;;;;;;;4.23;2.63;;;15.60;57.60;;;;;;5086134;28;20472;-82
2022/11/24 07:36:04;;;;;;;7.03;2.77;;;15.60;57.50;;;;;;5099170;28;20464;-80
2022/11/24 07:38:32;;;;;;;4.20;2.30;;;15.60;57.50;;;;;;5077928;28;20457;-82
2022/11/24 07:41:01;;;;;;;3.37;2.13;;;15.60;57.50;;;;;;5067672;28;20465;-81
2022/11/24 07:43:30;;;;;;;2.70;2.20;;;15.60;57.60;;;;;;5066473;28;20453;-81
2022/11/24 07:45:58;;;;;;;5.30;2.83;;;15.60;57.60;;;;;;5071066;28;20912;-80
2022/11/24 07:48:27;;;;;;;4.90;2.67;;;15.60;57.60;;;;;;5064596;28;20518;-82
2022/11/24 07:50:58;;;;;;;3.60;2.40;;;15.60;57.60;;;;;;5069824;28;20451;-81
2022/11/24 07:53:27;;;;;;;4.13;2.40;;;15.60;57.70;;;;;;5071373;28;20495;-83
2022/11/24 07:55:55;;;;;;;4.53;2.50;;;15.60;57.50;;;;;;5075642;28;20473;-83
2022/11/24 07:58:24;;;;;;;4.23;2.30;;;15.60;57.60;;;;;;5066793;28;20459;-82
2022/11/24 08:00:59;;;;;;;3.17;2.20;;;15.60;57.60;;;;;;5069629;28;20460;-82
2022/11/24 08:03:27;;;;;;;3.90;2.73;;;15.60;57.60;;;;;;5072503;28;20473;-81
2022/11/24 08:05:57;;;;;;;4.13;2.60;;;15.60;57.80;;;;;;5070676;28;20467;-81
2022/11/24 08:08:46;;;;;;;2.43;1.90;;;15.70;57.70;;;;;;5074199;28;20450;-81
2022/11/24 08:11:14;;;;;;;4.20;2.77;;;15.70;57.70;;;;;;5069347;28;20446;-82
2022/11/24 08:13:43;;;;;;;4.27;2.70;;;15.70;57.60;;;;;;5065993;28;20470;-80
2022/11/24 08:16:14;;;;;;;3.40;2.67;;;15.70;57.60;;;;;;5070737;28;20473;-81
2022/11/24 08:18:42;;;;;;;3.20;2.20;;;15.80;57.60;;;;;;5065915;28;20509;-80
2022/11/24 08:21:13;;;;;;;3.00;2.70;;;15.80;57.70;;;;;;5067297;28;20450;-82
2022/11/24 08:23:43;;;;;;;4.20;2.67;;;15.90;57.70;;;;;;5064766;28;20517;-81
2022/11/24 08:26:14;;;;;;;4.30;2.60;;;15.90;57.60;;;;;;5060236;28;20476;-83
2022/11/24 08:28:43;;;;;;;2.60;2.40;;;16.00;57.70;;;;;;5069222;28;20446;-80
2022/11/24 08:31:12;;;;;;;5.10;2.70;;;16.00;57.60;;;;;;5068169;28;20453;-82
2022/11/24 08:33:40;;;;;;;5.27;2.40;;;16.10;57.60;;;;;;5070613;28;20490;-82
2022/11/24 08:36:09;;;;;;;3.63;2.60;;;16.20;57.70;;;;;;5061191;28;20478;-82
2022/11/24 08:38:39;;;;;;;5.73;2.50;;;16.30;57.70;;;;;;5064500;28;20446;-81
2022/11/24 08:41:08;;;;;;;4.30;2.53;;;16.40;57.70;;;;;;5061230;28;20446;-81
2022/11/24 08:43:36;;;;;;;4.77;2.13;;;16.50;57.70;;;;;;5058541;28;20454;-79
2022/11/24 08:46:06;;;;;;;4.37;2.70;;;16.60;57.70;;;;;;5074693;28;20465;-81
2022/11/24 08:48:34;;;;;;;4.23;2.60;;;16.60;57.70;;;;;;5057706;28;20541;-84
2022/11/24 08:51:06;;;;;;;4.13;2.50;;;16.70;57.70;;;;;;5061007;28;20462;-83
2022/11/24 08:53:34;;;;;;;4.13;2.63;;;16.70;57.60;;;;;;5063845;28;20462;-83
2022/11/24 08:56:04;;;;;;;3.10;2.37;;;16.70;57.50;;;;;;5062971;28;20486;-83
2022/11/24 08:58:32;;;;;;;2.87;2.30;;;16.70;57.60;;;;;;5058113;28;20451;-84
2022/11/24 09:01:04;;;;;;;7.97;2.90;;;16.70;57.60;;;;;;5063670;28;20454;-81
2022/11/24 09:03:33;;;;;;;5.63;2.77;;;16.80;57.70;;;;;;5064503;28;20461;-81
2022/11/24 09:06:01;;;;;;;5.70;2.53;;;16.80;57.80;;;;;;5068762;28;20484;-82
2022/11/24 09:08:29;;;;;;;5.53;2.87;;;16.90;57.80;;;;;;5088569;28;20452;-81
2022/11/24 09:11:00;;;;;;;5.63;2.77;;;17.00;57.80;;;;;;5073303;28;20437;-82
2022/11/24 09:13:29;;;;;;;4.53;2.50;;;17.10;57.60;;;;;;5076946;28;20479;-81
2022/11/24 09:15:57;;;;;;;5.63;3.30;;;17.10;57.60;;;;;;5094102;28;20479;-81
2022/11/24 09:18:25;;;;;;;7.57;3.30;;;17.20;57.40;;;;;;5095412;28;20444;-81
2022/11/24 09:21:06;;;;;;;8.97;3.20;;;17.30;57.50;;;;;;5095876;28;20441;-81
2022/11/24 09:23:34;;;;;;;6.43;2.80;;;17.30;57.40;;;;;;5080917;28;20446;-82
2022/11/24 09:26:06;;;;;;;5.93;2.70;;;17.40;57.50;;;;;;5065384;28;20538;-82
2022/11/24 09:28:35;;;;;;;9.53;3.37;;;17.50;57.60;;;;;;5066781;28;20494;-83
2022/11/24 09:31:04;;;;;;;4.67;3.13;;;17.50;57.50;;;;;;5074697;28;20438;-83
2022/11/24 09:33:32;;;;;;;6.90;3.27;;;17.60;57.60;;;;;;5073746;28;20564;-81
2022/11/24 09:36:01;;;;;;;7.00;3.17;;;17.70;57.70;;;;;;5074742;28;20477;-81
2022/11/24 09:38:29;;;;;;;10.80;3.30;;;17.80;57.90;;;;;;5072774;28;20459;-82
2022/11/24 09:41:03;;;;;;;7.13;2.93;;;18.00;58.00;;;;;;5074778;28;20441;-83
2022/11/24 09:43:35;;;;;;;6.67;3.13;;;18.20;58.00;;;;;;5074561;28;20484;-84
2022/11/24 09:46:05;;;;;;;6.10;2.80;;;18.40;58.00;;;;;;5074782;28;20456;-83
2022/11/24 09:48:35;;;;;;;7.37;3.47;;;18.60;57.90;;;;;;5074269;28;20487;-82
2022/11/24 09:51:04;;;;;;;6.20;2.83;;;18.80;57.80;;;;;;5075621;28;20448;-80
2022/11/24 09:53:35;;;;;;;7.60;3.00;;;19.10;57.90;;;;;;5076089;28;21046;-79
2022/11/24 09:56:20;;;;;;;4.00;2.90;;;19.30;57.80;;;;;;5073827;28;20573;-80
2022/11/24 09:58:51;;;;;;;9.30;3.10;;;19.50;57.60;;;;;;5074140;28;20445;-81
2022/11/24 10:01:20;;;;;;;9.93;3.20;;;19.80;57.70;;;;;;5075027;28;20525;-82
2022/11/24 10:03:49;;;;;;;8.07;3.00;;;20.00;57.50;;;;;;5075133;28;20438;-82
2022/11/24 10:06:29;;;;;;;7.07;3.03;;;20.20;57.50;;;;;;5074826;28;20469;-81
2022/11/24 10:09:07;;;;;;;3.30;2.47;;;20.50;57.40;;;;;;5083925;28;20517;-82
2022/11/24 10:11:38;;;;;;;9.40;3.27;;;20.60;57.30;;;;;;5080527;28;20452;-81
2022/11/24 10:14:30;;;;;;;7.73;3.23;;;20.80;57.30;;;;;;5066859;28;20474;-81
2022/11/24 10:17:01;;;;;;;8.03;3.20;;;21.00;57.20;;;;;;5061447;28;20464;-81
2022/11/24 10:19:35;;;;;;;6.90;2.87;;;21.20;57.20;;;;;;5081633;28;20477;-81
2022/11/24 10:22:13;;;;;;;9.80;3.10;;;21.50;57.30;;;;;;5080609;28;20457;-80
2022/11/24 10:25:03;;;;;;;4.63;2.60;;;21.70;57.20;;;;;;5081418;28;20429;-82
2022/11/24 10:27:37;;;;;;;5.23;2.87;;;21.90;57.10;;;;;;5080016;28;20436;-82
2022/11/24 10:30:13;;;;;;;6.77;3.07;;;22.10;57.10;;;;;;5080584;28;20432;-82
2022/11/24 10:32:44;;;;;;;8.00;3.20;;;22.30;57.00;;;;;;5064054;28;20460;-81
2022/11/24 10:35:15;;;;;;;10.77;3.63;;;22.50;56.90;;;;;;5079129;28;20511;-82
2022/11/24 10:37:45;;;;;;;5.17;3.17;;;22.70;56.80;;;;;;5079780;28;20441;-81
2022/11/24 10:40:17;;;;;;;10.53;3.30;;;22.90;56.80;;;;;;5079676;28;20441;-81
2022/11/24 10:43:09;;;;;;;5.20;2.97;;;23.10;56.70;;;;;;5079500;28;20448;-82
2022/11/24 10:45:39;;;;;;;7.53;3.10;;;23.30;56.60;;;;;;5082457;28;20438;-80
2022/11/24 10:48:12;;;;;;;10.57;3.47;;;23.50;56.50;;;;;;5082059;28;20416;-82
2022/11/24 10:50:41;;;;;;;4.80;3.13;;;23.70;56.30;;;;;;5084993;28;20438;-82
2022/11/24 10:53:14;;;;;;;7.83;3.33;;;23.90;56.20;;;;;;5085142;28;20441;-82
2022/11/24 10:55:59;;;;;;;8.10;2.80;;;24.20;56.60;;;;;;5085508;28;20473;-82
2022/11/24 10:58:28;;;;;;;4.60;3.03;;;24.40;55.90;;;;;;5087319;28;20449;-83
2022/11/24 11:01:21;;;;;;;5.43;3.07;;;24.60;55.90;;;;;;5088581;28;20412;-83
2022/11/24 11:03:51;;;;;;;4.57;2.70;;;24.90;55.60;;;;;;5087822;28;20412;-83
2022/11/24 11:06:21;;;;;;;5.47;2.93;;;25.00;55.50;;;;;;5086597;28;20506;-84
2022/11/24 11:08:49;;;;;;;10.07;3.33;;;25.30;55.20;;;;;;5087463;28;20414;-83
2022/11/24 11:11:22;;;;;;;9.40;3.33;;;25.30;54.70;;;;;;5087095;28;20417;-83
2022/11/24 11:13:55;;;;;;;7.00;2.87;;;25.30;54.70;;;;;;5085082;28;20469;-83
2022/11/24 11:16:36;;;;;;;4.53;2.90;;;25.20;54.20;;;;;;5084776;28;20495;-83
2022/11/24 11:19:05;;;;;;;6.50;3.07;;;25.00;54.30;;;;;;5085905;28;20419;-83
2022/11/24 11:21:59;;;;;;;7.10;3.37;;;24.80;54.40;;;;;;5084053;28;20430;-83
2022/11/24 11:24:27;;;;;;;4.67;2.90;;;24.50;54.50;;;;;;5086086;28;20930;-83
2022/11/24 11:26:59;;;;;;;7.57;3.07;;;24.40;54.80;;;;;;5083780;28;20445;-82
2022/11/24 11:29:28;;;;;;;6.07;3.40;;;24.30;55.00;;;;;;5083435;28;20445;-83
2022/11/24 11:32:19;;;;;;;8.57;3.27;;;24.20;54.90;;;;;;5082530;28;20437;-82
2022/11/24 11:35:11;;;;;;;9.03;3.17;;;24.00;55.00;;;;;;5079888;28;20885;-83
2022/11/24 11:37:40;;;;;;;5.70;2.87;;;24.00;55.60;;;;;;5078213;28;20464;-83
2022/11/24 11:40:11;;;;;;;6.10;3.00;;;24.10;56.00;;;;;;5079972;28;20449;-83
2022/11/24 11:42:44;;;;;;;4.90;3.10;;;24.20;55.80;;;;;;5080037;28;20449;-83
2022/11/24 11:45:33;;;;;;;6.63;2.80;;;24.40;55.40;;;;;;5081341;28;20468;-82
2022/11/24 11:48:14;;;;;;;3.73;2.90;;;24.50;55.30;;;;;;5080979;28;20424;-82
2022/11/24 11:50:45;;;;;;;5.50;3.03;;;24.80;55.20;;;;;;5080109;28;20453;-82
2022/11/24 11:53:37;;;;;;;6.97;3.20;;;24.90;55.00;;;;;;5076012;28;20457;-82
2022/11/24 11:56:13;;;;;;;4.10;2.80;;;25.00;54.30;;;;;;5079930;28;20480;-82
2022/11/24 11:59:05;;;;;;;4.93;3.10;;;25.20;55.00;;;;;;5080571;28;20456;-82
2022/11/24 12:01:45;;;;;;;5.57;3.20;;;25.30;54.30;;;;;;5081330;28;20450;-82
2022/11/24 12:04:20;;;;;;;6.03;3.30;;;25.50;54.20;;;;;;5081520;28;20445;-80
2022/11/24 12:07:00;;;;;;;9.10;3.00;;;25.80;53.70;;;;;;5079395;28;20469;-82
2022/11/24 12:09:36;;;;;;;5.70;3.60;;;26.10;53.00;;;;;;5079687;28;20445;-82
2022/11/24 12:12:14;;;;;;;4.33;2.80;;;26.30;52.20;;;;;;5076318;28;20488;-83
2022/11/24 12:14:44;;;;;;;6.40;3.10;;;26.40;52.30;;;;;;5083359;28;20439;-82
2022/11/24 12:17:15;;;;;;;4.00;2.90;;;26.40;51.90;;;;;;5090490;28;20481;-82
2022/11/24 12:19:55;;;;;;;4.93;2.70;;;26.10;51.60;;;;;;5086997;28;20412;-83
2022/11/24 12:22:26;;;;;;;7.00;3.40;;;25.70;51.70;;;;;;5083881;28;20421;-83
2022/11/24 12:24:57;;;;;;;3.23;2.70;;;25.40;52.50;;;;;;5082009;28;20448;-83
2022/11/24 12:27:30;;;;;;;4.83;2.80;;;25.10;52.60;;;;;;5080112;28;20474;-83
2022/11/24 12:30:13;;;;;;;10.43;3.53;;;24.80;53.00;;;;;;5074850;28;20438;-83
2022/11/24 12:32:50;;;;;;;4.50;2.90;;;24.60;53.20;;;;;;5080902;28;20452;-83
2022/11/24 12:35:24;;;;;;;4.90;2.73;;;24.40;53.60;;;;;;5084111;28;20469;-82
2022/11/24 12:37:56;;;;;;;5.07;2.93;;;24.20;53.80;;;;;;5083631;28;20450;-82
2022/11/24 12:40:32;;;;;;;6.17;3.67;;;24.10;54.00;;;;;;5085765;28;20452;-83
2022/11/24 12:43:05;;;;;;;6.40;3.10;;;23.90;54.00;;;;;;5083485;28;20449;-83
2022/11/24 12:45:38;;;;;;;4.67;2.93;;;23.70;54.20;;;;;;5082463;28;20461;-83
2022/11/24 12:48:18;;;;;;;7.47;3.43;;;23.50;54.40;;;;;;5085993;28;20442;-82
2022/11/24 12:50:48;;;;;;;8.43;3.73;;;23.40;54.70;;;;;;5084980;28;20400;-83
2022/11/24 12:53:17;;;;;;;6.03;3.47;;;23.40;54.90;;;;;;5082746;28;20446;-83
2022/11/24 12:55:45;;;;;;;5.90;3.27;;;23.50;55.10;;;;;;5082774;28;20477;-83
2022/11/24 12:58:18;;;;;;;4.10;2.70;;;23.60;54.60;;;;;;5084142;28;20441;-83
2022/11/24 13:00:57;;;;;;;5.23;2.97;;;23.60;54.50;;;;;;5085950;28;20408;-83
2022/11/24 13:03:31;;;;;;;5.70;3.00;;;23.70;54.60;;;;;;5086385;28;20440;-83
2022/11/24 13:06:03;;;;;;;4.13;2.80;;;23.90;54.90;;;;;;5084919;28;20432;-83
2022/11/24 13:08:30;;;;;;;4.43;2.90;;;24.20;54.50;;;;;;5082819;28;20450;-82